createdAt,value
2023-03-23T15:59:12.115Z,99153.52
2023-03-23T16:01:42.971Z,99160.45
2023-03-23T16:04:17.681Z,99156.88
2023-03-23T16:06:48.340Z,99157.00
2023-03-23T16:09:21.272Z,99157.90
2023-03-23T16:11:52.278Z,99157.43
2023-03-23T16:14:22.663Z,99153.23
2023-03-23T16:16:55.700Z,99153.55
2023-03-23T16:19:27.247Z,99158.05
2023-03-23T16:21:58.052Z,99164.66
2023-03-23T16:24:28.544Z,99169.10
2023-03-23T16:26:59.346Z,99163.83
2023-03-23T16:32:04.162Z,99180.81
2023-03-23T16:34:37.733Z,99185.92
2023-03-23T16:37:07.789Z,99193.33
2023-03-23T16:39:39.602Z,99197.34
2023-03-23T16:42:10.108Z,99200.41
2023-03-23T16:44:40.717Z,99201.02
2023-03-23T16:47:09.897Z,99205.34
2023-03-23T16:49:41.945Z,99208.57
2023-03-23T16:52:11.433Z,99209.95
2023-03-23T16:54:41.674Z,99212.66
2023-03-23T16:57:13.374Z,99209.39
2023-03-23T16:59:43.616Z,99207.49
2023-03-23T17:02:14.504Z,99198.67
2023-03-23T17:04:45.384Z,99193.45
2023-03-23T17:07:18.842Z,99203.69
2023-03-23T17:09:51.092Z,99210.83
2023-03-23T17:12:21.347Z,99218.66
2023-03-23T17:14:51.263Z,99219.09
2023-03-23T17:17:21.664Z,99216.23
2023-03-23T17:19:54.192Z,99214.55
2023-03-23T17:22:26.413Z,99205.32
2023-03-23T17:24:59.314Z,99198.95
2023-03-23T17:27:33.278Z,99192.33
2023-03-23T17:30:09.243Z,99190.77
2023-03-23T17:32:40.541Z,99190.78
2023-03-23T17:35:12.829Z,99194.80
2023-03-23T17:37:46.468Z,99200.34
2023-03-23T17:40:17.827Z,99204.88
2023-03-23T17:42:52.816Z,99210.98
2023-03-23T17:45:24.010Z,99216.84
2023-03-23T17:47:56.416Z,99218.09
2023-03-23T17:50:27.168Z,99222.84
2023-03-23T17:52:58.018Z,99228.33
2023-03-23T17:55:29.991Z,99229.70
2023-03-23T17:58:04.768Z,99232.17
2023-03-23T18:00:36.113Z,99230.38
2023-03-23T18:03:10.821Z,99225.42
2023-03-23T18:05:42.898Z,99220.84
2023-03-23T18:08:13.947Z,99219.23
2023-03-23T18:10:44.628Z,99218.25
2023-03-23T18:13:16.659Z,99217.61
2023-03-23T18:15:52.319Z,99223.73
2023-03-23T18:18:22.732Z,99231.13
2023-03-23T18:21:02.075Z,99238.98
2023-03-23T18:23:39.088Z,99227.91
2023-03-23T18:26:15.569Z,99220.54
2023-03-23T18:28:46.195Z,99218.64
2023-03-23T18:31:21.586Z,99219.11
2023-03-23T18:33:54.433Z,99215.48
2023-03-23T18:36:26.346Z,99213.58
2023-03-23T18:38:59.610Z,99207.78
2023-03-23T18:41:35.294Z,99209.27
2023-03-23T18:44:09.296Z,99221.40
2023-03-23T18:46:44.421Z,99227.80
2023-03-23T18:49:16.182Z,99226.59
2023-03-23T18:51:47.826Z,99228.55
2023-03-23T18:54:18.944Z,99231.57
2023-03-23T18:56:52.423Z,99229.59
2023-03-23T18:59:25.082Z,99235.50
2023-03-23T19:01:57.371Z,99243.10
2023-03-23T19:04:32.740Z,99243.98
2023-03-23T19:07:05.575Z,99244.73
2023-03-23T19:09:40.063Z,99241.73
2023-03-23T19:12:12.932Z,99246.52
2023-03-23T19:14:45.780Z,99248.36
2023-03-23T19:17:22.069Z,99246.21
2023-03-23T19:19:55.350Z,99240.94
2023-03-23T19:22:25.602Z,99238.98
2023-03-23T19:24:57.967Z,99241.98
2023-03-23T19:27:30.174Z,99241.83
2023-03-23T19:30:03.475Z,99242.42
2023-03-23T19:32:37.450Z,99244.38
2023-03-23T19:35:10.312Z,99247.70
2023-03-23T19:37:44.398Z,99250.11
2023-03-23T19:40:31.308Z,99253.54
2023-03-23T19:43:09.910Z,99251.80
2023-03-23T19:45:44.697Z,99249.90
2023-03-23T19:48:19.744Z,99251.42
2023-03-23T19:50:55.281Z,99250.31
2023-03-23T19:53:28.793Z,99245.30
2023-03-23T19:55:59.673Z,99237.44
2023-03-23T19:58:31.571Z,99234.64
2023-03-23T20:01:04.266Z,99235.38
2023-03-23T20:03:36.369Z,99235.20
2023-03-23T20:06:12.922Z,99231.70
2023-03-23T20:08:46.572Z,99232.32
2023-03-23T20:11:20.699Z,99238.46
2023-03-23T20:13:55.413Z,99245.05
2023-03-23T20:16:30.093Z,99242.64
2023-03-23T20:19:04.906Z,99239.84
2023-03-23T20:21:40.683Z,99237.70
2023-03-23T20:24:13.411Z,99238.60
2023-03-23T20:26:47.583Z,99244.14
2023-03-23T20:29:22.235Z,99244.30
2023-03-23T20:31:54.603Z,99240.36
2023-03-23T20:34:32.097Z,99246.32
2023-03-23T20:37:04.273Z,99245.81
2023-03-23T20:39:37.647Z,99252.86
2023-03-23T20:42:13.114Z,99266.77
2023-03-23T20:44:46.037Z,99294.53
2023-03-23T20:47:18.163Z,99315.34
2023-03-23T20:49:53.220Z,99315.99
2023-03-23T20:52:27.319Z,99320.16
2023-03-23T20:55:00.032Z,99340.73
2023-03-23T20:57:31.620Z,99343.94
2023-03-23T21:00:07.294Z,99341.83
2023-03-23T21:02:45.684Z,99331.52
2023-03-23T21:05:19.429Z,99330.85
2023-03-23T21:07:51.192Z,99333.09
2023-03-23T21:10:29.424Z,99342.65
2023-03-23T21:13:00.794Z,99344.02
2023-03-23T21:16:24.704Z,99335.61
2023-03-23T21:18:56.578Z,99322.84
2023-03-23T21:21:28.082Z,99326.11
2023-03-23T21:24:03.471Z,99334.96
2023-03-23T21:26:38.295Z,99346.09
2023-03-23T21:29:12.657Z,99354.64
2023-03-23T21:31:41.986Z,99355.53
2023-03-23T21:34:17.622Z,99356.13
2023-03-23T21:36:48.816Z,99370.61
2023-03-23T21:39:20.060Z,99378.66
2023-03-23T21:41:53.531Z,99377.89
2023-03-23T21:44:25.688Z,99375.66
2023-03-23T21:46:56.832Z,99368.48
2023-03-23T21:49:28.118Z,99359.69
2023-03-23T21:51:58.162Z,99349.23
2023-03-23T21:54:30.652Z,99348.80
2023-03-23T21:56:59.944Z,99354.78
2023-03-23T21:59:30.568Z,99354.81
2023-03-23T22:02:02.448Z,99355.98
2023-03-23T22:04:34.086Z,99363.90
2023-03-23T22:07:04.246Z,99352.53
2023-03-23T22:09:35.745Z,99344.33
2023-03-23T22:12:06.265Z,99353.71
2023-03-23T22:14:37.833Z,99353.45
2023-03-23T22:17:59.535Z,99353.45
2023-03-23T22:20:30.212Z,99349.98
2023-03-23T22:22:59.303Z,99351.06
2023-03-23T22:25:29.548Z,99349.79
2023-03-23T22:27:59.867Z,99359.09
2023-03-23T22:30:30.774Z,99363.06
2023-03-23T22:33:01.143Z,99360.45
2023-03-23T22:35:31.094Z,99364.73
2023-03-23T22:38:03.651Z,99371.83
2023-03-23T22:40:34.797Z,99377.05
2023-03-23T22:43:04.197Z,99382.42
2023-03-23T22:45:36.595Z,99388.36
2023-03-23T22:48:10.976Z,99388.31
2023-03-23T22:50:40.401Z,99387.01
2023-03-23T22:53:12.718Z,99375.78
2023-03-23T22:55:46.303Z,99377.49
2023-03-23T22:58:15.973Z,99381.02
2023-03-23T23:00:46.501Z,99385.60
2023-03-23T23:03:17.734Z,99388.59
2023-03-23T23:05:52.424Z,99390.08
2023-03-23T23:08:22.746Z,99386.53
2023-03-23T23:10:54.009Z,99387.88
2023-03-23T23:13:25.325Z,99388.13
2023-03-23T23:16:19.804Z,99381.14
2023-03-23T23:18:49.283Z,99378.86
2023-03-23T23:21:21.171Z,99380.13
2023-03-23T23:23:53.141Z,99376.33
2023-03-23T23:26:23.175Z,99384.80
2023-03-23T23:28:58.169Z,99375.55
2023-03-23T23:31:30.745Z,99366.88
2023-03-23T23:34:00.700Z,99366.95
2023-03-23T23:36:31.576Z,99367.04
2023-03-23T23:39:02.637Z,99373.70
2023-03-23T23:41:32.222Z,99377.55
2023-03-23T23:44:03.689Z,99373.41
2023-03-23T23:46:33.204Z,99375.65
2023-03-23T23:49:05.215Z,99378.85
2023-03-23T23:51:36.597Z,99376.98
2023-03-23T23:54:06.891Z,99378.10
2023-03-23T23:56:39.923Z,99371.00
2023-03-23T23:59:10.763Z,99374.61
